Time;durP1;ratioP1;P1;durP2;ratioP2;P2;SDS_P1;SDS_P2;PMS_P1;PMS_P2;Temp;Humidity;BMP_temperature;BMP_pressure;BME280_temperature;BME280_humidity;BME280_pressure;Samples;Min_cycle;Max_cycle;Signal;HPM_P1;HPM_P2
2023/01/09 00:00:28;;;;;;;;;;;;;;;13.02;52.16;98914.81;4468038;32;34075;-64
2023/01/09 00:02:55;;;;;;;;;;;;;;;13.27;51.66;98910.59;4475097;32;34522;-63
2023/01/09 00:05:22;;;;;;;;;;;;;;;13.33;51.55;98917.22;4470969;31;35527;-63
2023/01/09 00:07:50;;;;;;;;;;;;;;;13.43;51.17;98920.66;4469559;32;33287;-63
2023/01/09 00:10:17;;;;;;;;;;;;;;;13.42;51.04;98924.38;4476163;32;34386;-65
2023/01/09 00:12:44;;;;;;;;;;;;;;;13.00;52.21;98924.84;4481381;32;34473;-64
2023/01/09 00:15:12;;;;;;;;;;;;;;;13.31;51.46;98916.50;4475652;32;34191;-63
2023/01/09 00:17:40;;;;;;;;;;;;;;;13.16;51.68;98911.63;4467658;31;33408;-63
2023/01/09 00:20:08;;;;;;;;;;;;;;;13.03;51.92;98911.13;4472275;32;34631;-63
2023/01/09 00:22:36;;;;;;;;;;;;;;;13.14;51.78;98910.09;4468815;32;34728;-63
2023/01/09 00:25:04;;;;;;;;;;;;;;;12.91;52.38;98907.81;4473409;32;35566;-63
2023/01/09 00:27:34;;;;;;;;;;;;;;;12.77;52.84;98903.78;4480662;32;33188;-61
2023/01/09 00:30:02;;;;;;;;;;;;;;;12.90;52.65;98910.66;4484822;32;34320;-61
2023/01/09 00:32:31;;;;;;;;;;;;;;;12.72;53.01;98903.41;4471294;32;34558;-61
2023/01/09 00:34:58;;;;;;;;;;;;;;;12.78;52.95;98900.12;4473093;31;35270;-62
2023/01/09 00:37:25;;;;;;;;;;;;;;;12.79;53.03;98907.16;4470142;32;33718;-63
2023/01/09 00:39:52;;;;;;;;;;;;;;;13.19;51.79;98903.28;4476201;32;35325;-62
2023/01/09 00:42:21;;;;;;;;;;;;;;;12.81;52.90;98902.50;4473589;32;33748;-62
2023/01/09 00:44:49;;;;;;;;;;;;;;;13.10;52.17;98896.13;4468335;32;35340;-62
2023/01/09 00:47:49;;;;;;;;;;;;;;;13.21;51.58;98897.72;4454931;32;33344;-63
2023/01/09 00:50:21;;;;;;;;;;;;;;;13.13;52.01;98894.94;4425996;32;35259;-62
2023/01/09 00:52:49;;;;;;;;;;;;;;;12.99;52.33;98894.47;4477576;32;35067;-63
2023/01/09 00:55:16;;;;;;;;;;;;;;;13.08;52.12;98887.34;4478247;32;35245;-63
2023/01/09 00:57:43;;;;;;;;;;;;;;;12.97;52.58;98883.06;4476567;31;33126;-62
2023/01/09 01:00:11;;;;;;;;;;;;;;;13.09;52.40;98880.97;4468779;32;35682;-62
2023/01/09 01:02:38;;;;;;;;;;;;;;;12.67;53.14;98884.19;4469777;32;32829;-63
2023/01/09 01:07:52;;;;;;;;;;;;;;;12.58;53.33;98883.25;4476202;32;33518;-64
2023/01/09 01:10:21;;;;;;;;;;;;;;;12.71;53.07;98885.59;4471457;31;34036;-63
2023/01/09 01:12:48;;;;;;;;;;;;;;;12.49;53.55;98883.31;4469103;32;33623;-64
2023/01/09 01:15:16;;;;;;;;;;;;;;;12.95;52.26;98870.75;4481742;32;34413;-62
2023/01/09 01:17:43;;;;;;;;;;;;;;;12.82;52.80;98874.66;4468403;32;33133;-63
2023/01/09 01:20:12;;;;;;;;;;;;;;;12.96;52.34;98867.91;4480267;32;34216;-63
2023/01/09 01:22:42;;;;;;;;;;;;;;;12.54;53.58;98872.97;4474570;32;35428;-62
2023/01/09 01:25:10;;;;;;;;;;;;;;;12.68;53.27;98872.47;4468388;32;34688;-62
2023/01/09 01:27:38;;;;;;;;;;;;;;;12.75;52.51;98865.50;4468606;32;34634;-62
2023/01/09 01:30:06;;;;;;;;;;;;;;;12.97;52.41;98860.69;4477543;31;34137;-62
2023/01/09 01:32:33;;;;;;;;;;;;;;;12.64;53.19;98860.31;4477550;32;34052;-62
2023/01/09 01:35:00;;;;;;;;;;;;;;;12.85;52.65;98848.50;4481546;32;35860;-62
2023/01/09 01:37:28;;;;;;;;;;;;;;;13.00;52.24;98846.97;4472411;32;33584;-61
2023/01/09 01:39:55;;;;;;;;;;;;;;;12.55;53.67;98839.75;4480159;32;35394;-62
2023/01/09 01:42:22;;;;;;;;;;;;;;;12.89;52.83;98839.12;4475936;32;35506;-64
2023/01/09 01:45:08;;;;;;;;;;;;;;;12.15;54.71;98843.59;4473319;31;34174;-60
2023/01/09 01:47:36;;;;;;;;;;;;;;;12.61;53.69;98828.41;4477984;31;33773;-62
2023/01/09 01:50:06;;;;;;;;;;;;;;;12.68;53.46;98818.78;4471242;32;33877;-64
2023/01/09 01:52:33;;;;;;;;;;;;;;;12.35;54.45;98826.41;4476243;32;36363;-62
2023/01/09 01:55:01;;;;;;;;;;;;;;;12.40;54.37;98817.09;4455634;32;35385;-62
2023/01/09 01:57:29;;;;;;;;;;;;;;;12.29;54.75;98827.00;4454965;32;33680;-63
2023/01/09 01:59:56;;;;;;;;;;;;;;;12.59;53.96;98817.00;4476310;32;34076;-62
2023/01/09 02:02:24;;;;;;;;;;;;;;;12.91;52.94;98811.13;4477116;32;33951;-62
2023/01/09 02:04:52;;;;;;;;;;;;;;;12.21;54.44;98813.50;4463163;32;34284;-63
2023/01/09 02:07:20;;;;;;;;;;;;;;;12.08;55.08;98810.31;4468514;32;34369;-64
2023/01/09 02:09:47;;;;;;;;;;;;;;;12.57;53.98;98805.56;4476685;32;34591;-63
2023/01/09 02:12:16;;;;;;;;;;;;;;;13.13;52.42;98795.53;4475085;32;35378;-63
2023/01/09 02:14:43;;;;;;;;;;;;;;;13.24;51.79;98790.81;4469034;32;34864;-64
2023/01/09 02:17:40;;;;;;;;;;;;;;;12.92;52.95;98794.00;4474321;32;33198;-65
2023/01/09 02:20:18;;;;;;;;;;;;;;;12.86;53.13;98788.41;4462621;31;33833;-63
2023/01/09 02:22:54;;;;;;;;;;;;;;;12.18;55.21;98784.28;4463645;32;34305;-64
2023/01/09 02:25:34;;;;;;;;;;;;;;;11.26;57.93;98782.25;4475874;32;35015;-65
2023/01/09 02:28:01;;;;;;;;;;;;;;;11.01;59.54;98786.38;4475065;32;34008;-64
2023/01/09 02:30:30;;;;;;;;;;;;;;;11.43;58.66;98786.91;4484840;32;35164;-65
2023/01/09 02:33:00;;;;;;;;;;;;;;;11.52;58.28;98787.00;4474760;32;34218;-62
2023/01/09 02:35:33;;;;;;;;;;;;;;;11.85;57.03;98777.66;4468258;32;32795;-62
2023/01/09 02:38:20;;;;;;;;;;;;;;;12.18;56.30;98770.88;4481329;32;33411;-62
2023/01/09 02:40:56;;;;;;;;;;;;;;;11.97;56.52;98784.50;4471851;32;34946;-63
2023/01/09 02:43:24;;;;;;;;;;;;;;;11.54;58.03;98780.50;4471566;32;34078;-64
2023/01/09 02:45:51;;;;;;;;;;;;;;;12.31;55.73;98770.53;4468447;32;35519;-64
2023/01/09 02:48:18;;;;;;;;;;;;;;;12.07;55.66;98773.72;4479273;32;33519;-63
2023/01/09 02:50:58;;;;;;;;;;;;;;;11.84;56.59;98773.22;4481093;32;33946;-64
2023/01/09 02:53:35;;;;;;;;;;;;;;;12.58;55.18;98766.97;4482523;32;33815;-63
2023/01/09 02:56:02;;;;;;;;;;;;;;;12.88;54.12;98764.94;4456568;32;32850;-63
2023/01/09 02:58:32;;;;;;;;;;;;;;;12.29;55.18;98754.56;4476951;32;33147;-63
2023/01/09 03:01:11;;;;;;;;;;;;;;;12.41;55.01;98749.84;4472949;32;34658;-65
2023/01/09 03:03:40;;;;;;;;;;;;;;;12.87;53.98;98733.69;4470702;32;34690;-63
2023/01/09 03:06:13;;;;;;;;;;;;;;;12.55;54.65;98737.75;4481306;32;34713;-62
2023/01/09 03:08:45;;;;;;;;;;;;;;;11.96;55.93;98739.91;4466901;32;33267;-63
2023/01/09 03:11:12;;;;;;;;;;;;;;;12.93;53.78;98743.81;4463790;32;35933;-63
2023/01/09 03:13:48;;;;;;;;;;;;;;;12.46;55.04;98736.00;4476820;32;34062;-63
2023/01/09 03:16:22;;;;;;;;;;;;;;;12.68;54.51;98740.06;4467845;32;34194;-63
2023/01/09 03:18:50;;;;;;;;;;;;;;;12.87;53.91;98739.91;4469493;32;32985;-62
2023/01/09 03:21:17;;;;;;;;;;;;;;;12.68;54.48;98737.38;4460947;32;34586;-63
2023/01/09 03:23:49;;;;;;;;;;;;;;;13.14;53.21;98730.94;4484480;32;35518;-63
2023/01/09 03:26:16;;;;;;;;;;;;;;;12.81;54.05;98732.50;4485484;32;35261;-62
2023/01/09 03:28:44;;;;;;;;;;;;;;;13.12;52.73;98719.47;4471313;32;33388;-63
2023/01/09 03:31:11;;;;;;;;;;;;;;;12.54;54.53;98722.66;4479646;32;35315;-62
2023/01/09 03:33:38;;;;;;;;;;;;;;;11.04;59.22;98737.84;4485403;32;33879;-63
2023/01/09 03:36:06;;;;;;;;;;;;;;;11.75;56.64;98733.91;4484354;32;33993;-62
2023/01/09 03:38:34;;;;;;;;;;;;;;;12.21;55.90;98724.97;4472361;32;33085;-62
2023/01/09 03:41:01;;;;;;;;;;;;;;;11.88;56.49;98724.59;4478330;32;34224;-62
2023/01/09 03:43:29;;;;;;;;;;;;;;;11.65;57.34;98725.88;4477765;32;35425;-62
2023/01/09 03:45:56;;;;;;;;;;;;;;;11.70;57.33;98718.25;4480114;32;34998;-63
2023/01/09 03:48:24;;;;;;;;;;;;;;;11.52;57.11;98718.16;4480970;32;33410;-63
2023/01/09 03:50:51;;;;;;;;;;;;;;;12.39;55.08;98708.94;4476300;32;33889;-62
2023/01/09 03:53:19;;;;;;;;;;;;;;;12.15;55.70;98712.16;4485199;32;35567;-62
2023/01/09 03:55:47;;;;;;;;;;;;;;;11.68;56.50;98714.03;4481602;32;34329;-62
2023/01/09 03:58:15;;;;;;;;;;;;;;;12.62;54.09;98719.22;4479266;32;34385;-63
2023/01/09 04:00:44;;;;;;;;;;;;;;;11.85;55.61;98719.50;4481995;32;35232;-61
2023/01/09 04:03:12;;;;;;;;;;;;;;;11.98;55.65;98707.59;4479474;32;35495;-62
2023/01/09 04:05:39;;;;;;;;;;;;;;;12.29;54.60;98716.16;4476004;32;35420;-62
2023/01/09 04:08:06;;;;;;;;;;;;;;;12.74;53.25;98709.91;4481611;32;34600;-62
2023/01/09 04:10:34;;;;;;;;;;;;;;;12.99;52.54;98708.28;4477909;32;33761;-62
2023/01/09 04:13:01;;;;;;;;;;;;;;;12.39;54.41;98702.69;4478347;32;33030;-63
2023/01/09 04:15:28;;;;;;;;;;;;;;;13.20;52.28;98695.38;4474262;32;34382;-62
2023/01/09 04:17:56;;;;;;;;;;;;;;;13.36;51.86;98702.75;4478862;31;34947;-62
2023/01/09 04:20:23;;;;;;;;;;;;;;;13.38;51.70;98703.41;4469728;32;33932;-62
2023/01/09 04:22:50;;;;;;;;;;;;;;;13.43;51.54;98709.16;4475507;32;34841;-64
2023/01/09 04:25:17;;;;;;;;;;;;;;;13.46;51.39;98718.75;4480106;32;34873;-62
2023/01/09 04:27:45;;;;;;;;;;;;;;;13.43;51.41;98719.06;4482547;31;34293;-64
2023/01/09 04:30:14;;;;;;;;;;;;;;;13.40;51.36;98719.38;4480394;32;32621;-62
2023/01/09 04:32:42;;;;;;;;;;;;;;;13.07;52.48;98719.13;4482567;31;34098;-62
2023/01/09 04:35:09;;;;;;;;;;;;;;;13.42;51.52;98715.56;4481251;32;32933;-63
2023/01/09 04:37:36;;;;;;;;;;;;;;;13.39;51.77;98720.41;4475300;32;34092;-63
2023/01/09 04:40:07;;;;;;;;;;;;;;;13.24;52.35;98712.91;4469033;32;34394;-65
2023/01/09 04:42:38;;;;;;;;;;;;;;;13.56;51.55;98722.19;4483095;32;35148;-62
2023/01/09 04:45:06;;;;;;;;;;;;;;;12.78;53.63;98719.38;4478429;31;34055;-62
2023/01/09 04:47:33;;;;;;;;;;;;;;;12.67;54.02;98717.75;4456127;32;33413;-63
2023/01/09 04:50:00;;;;;;;;;;;;;;;12.84;53.78;98710.72;4468197;32;33856;-65
2023/01/09 04:52:28;;;;;;;;;;;;;;;12.92;53.79;98709.91;4472516;32;35520;-64
2023/01/09 04:54:55;;;;;;;;;;;;;;;13.09;53.09;98717.09;4465890;31;35416;-62
2023/01/09 04:57:22;;;;;;;;;;;;;;;13.45;52.16;98711.69;4465893;32;33933;-64
2023/01/09 04:59:50;;;;;;;;;;;;;;;13.18;52.84;98705.44;4472790;32;35106;-64
2023/01/09 05:02:18;;;;;;;;;;;;;;;12.76;54.03;98700.72;4466053;32;34473;-64
2023/01/09 05:04:46;;;;;;;;;;;;;;;12.26;55.14;98705.72;4471668;32;34080;-65
2023/01/09 05:07:13;;;;;;;;;;;;;;;12.68;53.76;98713.22;4475460;32;33345;-63
2023/01/09 05:09:40;;;;;;;;;;;;;;;12.31;55.20;98704.28;4478080;32;33682;-63
2023/01/09 05:12:07;;;;;;;;;;;;;;;12.90;53.41;98709.22;4473365;31;34254;-63
2023/01/09 05:14:35;;;;;;;;;;;;;;;12.95;53.39;98697.03;4481663;32;32966;-65
2023/01/09 05:17:02;;;;;;;;;;;;;;;12.28;54.78;98701.91;4479112;32;33582;-66
2023/01/09 05:19:30;;;;;;;;;;;;;;;11.42;57.07;98703.97;4477882;32;36340;-65
2023/01/09 05:21:57;;;;;;;;;;;;;;;11.36;57.42;98700.06;4470291;32;33151;-66
2023/01/09 05:24:24;;;;;;;;;;;;;;;11.02;58.77;98699.69;4466309;32;33872;-63
2023/01/09 05:26:51;;;;;;;;;;;;;;;11.32;57.85;98692.44;4476372;32;34087;-63
2023/01/09 05:29:19;;;;;;;;;;;;;;;10.55;60.03;98702.22;4478893;32;35273;-62
2023/01/09 05:31:46;;;;;;;;;;;;;;;10.87;58.80;98698.44;4481219;32;34416;-61
2023/01/09 05:34:13;;;;;;;;;;;;;;;11.40;57.51;98693.41;4475919;31;34027;-61
2023/01/09 05:36:41;;;;;;;;;;;;;;;11.11;58.54;98698.84;4474383;32;33349;-61
2023/01/09 05:39:08;;;;;;;;;;;;;;;12.36;54.70;98698.50;4481651;31;34077;-62
2023/01/09 05:41:35;;;;;;;;;;;;;;;12.65;53.92;98706.34;4480634;32;35352;-62
2023/01/09 05:44:03;;;;;;;;;;;;;;;13.12;52.58;98698.00;4472721;32;34335;-65
2023/01/09 05:46:31;;;;;;;;;;;;;;;12.08;55.20;98705.72;4477904;32;33487;-63
2023/01/09 05:48:58;;;;;;;;;;;;;;;12.67;53.64;98707.00;4476650;32;34235;-61
2023/01/09 05:51:25;;;;;;;;;;;;;;;11.93;55.01;98700.00;4480974;32;34992;-63
2023/01/09 05:53:53;;;;;;;;;;;;;;;11.37;57.28;98706.25;4474880;32;35202;-62
2023/01/09 05:56:20;;;;;;;;;;;;;;;10.89;58.94;98699.97;4474405;31;33406;-62
2023/01/09 05:58:47;;;;;;;;;;;;;;;10.79;58.63;98691.13;4472571;31;35326;-62
2023/01/09 06:01:15;;;;;;;;;;;;;;;10.62;59.05;98691.81;4473875;31;35376;-61
2023/01/09 06:03:42;;;;;;;;;;;;;;;11.61;56.40;98695.03;4469781;32;33398;-62
2023/01/09 06:06:10;;;;;;;;;;;;;;;12.19;54.73;98693.91;4476521;32;34735;-62
2023/01/09 06:08:37;;;;;;;;;;;;;;;10.90;57.80;98699.00;4478160;32;35284;-63
2023/01/09 06:11:04;;;;;;;;;;;;;;;12.09;55.08;98699.34;4479691;32;34208;-62
2023/01/09 06:13:31;;;;;;;;;;;;;;;12.20;54.44;98706.34;4472360;32;33595;-61
2023/01/09 06:15:59;;;;;;;;;;;;;;;11.22;56.87;98710.38;4469081;32;32122;-61
2023/01/09 06:18:26;;;;;;;;;;;;;;;11.82;55.26;98709.06;4468388;32;34182;-62
2023/01/09 06:20:53;;;;;;;;;;;;;;;10.81;58.10;98710.53;4467543;32;34239;-63
2023/01/09 06:23:21;;;;;;;;;;;;;;;10.71;58.72;98712.37;4474572;32;33713;-61
2023/01/09 06:25:48;;;;;;;;;;;;;;;11.66;55.84;98716.88;4469512;32;34480;-62
2023/01/09 06:28:15;;;;;;;;;;;;;;;10.77;58.61;98725.19;4468905;32;33094;-60
2023/01/09 06:30:42;;;;;;;;;;;;;;;11.06;57.59;98717.16;4479166;32;34566;-61
2023/01/09 06:33:10;;;;;;;;;;;;;;;11.34;57.63;98715.41;4467948;32;34684;-63
2023/01/09 06:35:37;;;;;;;;;;;;;;;10.91;58.25;98716.75;4481750;32;33100;-62
2023/01/09 06:38:05;;;;;;;;;;;;;;;10.61;59.10;98717.72;4473713;32;34916;-62
2023/01/09 06:40:32;;;;;;;;;;;;;;;10.89;59.39;98724.06;4475022;32;35254;-64
2023/01/09 06:42:59;;;;;;;;;;;;;;;10.39;59.95;98708.13;4471009;32;34159;-62
2023/01/09 06:45:26;;;;;;;;;;;;;;;9.65;62.76;98724.47;4473884;32;33479;-62
2023/01/09 06:47:54;;;;;;;;;;;;;;;9.79;62.08;98717.91;4473623;32;33889;-61
2023/01/09 06:50:21;;;;;;;;;;;;;;;10.08;61.22;98715.38;4478240;32;35490;-62
2023/01/09 06:52:48;;;;;;;;;;;;;;;9.14;64.10;98717.31;4474963;31;34168;-63
2023/01/09 06:55:16;;;;;;;;;;;;;;;9.75;62.91;98708.50;4465975;32;33520;-62
2023/01/09 06:57:43;;;;;;;;;;;;;;;9.47;63.57;98710.91;4467789;32;35117;-61
2023/01/09 07:00:11;;;;;;;;;;;;;;;9.15;64.61;98702.12;4479679;31;34389;-60
2023/01/09 07:02:38;;;;;;;;;;;;;;;9.49;63.68;98710.75;4466951;32;32934;-63
2023/01/09 07:05:07;;;;;;;;;;;;;;;10.61;60.18;98709.69;4465505;32;33498;-65
2023/01/09 07:07:34;;;;;;;;;;;;;;;9.85;61.95;98713.87;4466861;32;35285;-64
2023/01/09 07:10:02;;;;;;;;;;;;;;;10.39;60.78;98707.28;4469627;32;34108;-64
2023/01/09 07:12:29;;;;;;;;;;;;;;;9.67;62.74;98714.50;4478127;32;34335;-64
2023/01/09 07:14:56;;;;;;;;;;;;;;;9.14;64.42;98708.47;4470074;32;33487;-64
2023/01/09 07:17:24;;;;;;;;;;;;;;;9.50;64.01;98705.31;4468614;32;33540;-64
2023/01/09 07:19:51;;;;;;;;;;;;;;;9.74;63.25;98709.47;4474758;32;34238;-64
2023/01/09 07:22:18;;;;;;;;;;;;;;;10.15;61.06;98710.31;4475454;32;34376;-64
2023/01/09 07:24:46;;;;;;;;;;;;;;;9.54;62.43;98709.41;4467942;32;33160;-64
2023/01/09 07:27:14;;;;;;;;;;;;;;;10.59;59.89;98711.66;4471078;32;34949;-63
2023/01/09 07:29:41;;;;;;;;;;;;;;;10.69;60.00;98717.88;4479117;32;33014;-64
2023/01/09 07:32:08;;;;;;;;;;;;;;;11.22;58.08;98713.03;4481973;32;34208;-63
2023/01/09 07:34:36;;;;;;;;;;;;;;;11.29;58.09;98708.78;4469114;31;33466;-63
2023/01/09 07:37:03;;;;;;;;;;;;;;;10.99;58.39;98702.66;4477787;32;34283;-63
2023/01/09 07:39:30;;;;;;;;;;;;;;;9.79;61.93;98702.75;4470136;32;34548;-65
2023/01/09 07:41:58;;;;;;;;;;;;;;;11.14;58.74;98698.53;4467441;32;33614;-65
2023/01/09 07:44:25;;;;;;;;;;;;;;;10.66;60.01;98683.37;4478427;32;34389;-63
2023/01/09 07:46:52;;;;;;;;;;;;;;;10.22;60.21;98680.19;4474189;32;32711;-63
2023/01/09 07:49:20;;;;;;;;;;;;;;;10.69;59.57;98685.78;4470103;32;33895;-63
2023/01/09 07:51:47;;;;;;;;;;;;;;;10.13;60.91;98688.22;4476196;32;32825;-64
2023/01/09 07:54:15;;;;;;;;;;;;;;;9.39;62.04;98675.16;4468057;32;34194;-65
2023/01/09 07:56:42;;;;;;;;;;;;;;;10.36;60.52;98667.44;4482474;32;34386;-64
2023/01/09 07:59:09;;;;;;;;;;;;;;;10.88;58.26;98676.88;4476226;32;32866;-63
2023/01/09 08:01:37;;;;;;;;;;;;;;;10.04;61.19;98682.69;4471187;31;33734;-64
2023/01/09 08:04:04;;;;;;;;;;;;;;;10.96;58.53;98676.16;4473862;32;32097;-65
2023/01/09 08:06:32;;;;;;;;;;;;;;;9.91;60.91;98668.72;4476765;31;35197;-65
2023/01/09 08:08:59;;;;;;;;;;;;;;;8.85;64.04;98658.41;4474940;32;34327;-64
2023/01/09 08:11:26;;;;;;;;;;;;;;;9.88;62.20;98668.16;4474171;32;34545;-64
2023/01/09 08:13:53;;;;;;;;;;;;;;;10.37;61.01;98678.00;4479347;32;33113;-65
2023/01/09 08:16:21;;;;;;;;;;;;;;;10.32;61.50;98688.28;4463271;32;34288;-65
2023/01/09 08:18:48;;;;;;;;;;;;;;;9.93;62.33;98698.84;4469597;32;35089;-64
2023/01/09 08:21:16;;;;;;;;;;;;;;;9.87;62.46;98698.56;4473859;32;34181;-65
2023/01/09 08:23:44;;;;;;;;;;;;;;;9.51;64.06;98682.09;4483200;32;33368;-66
2023/01/09 08:26:11;;;;;;;;;;;;;;;9.67;64.37;98694.97;4469559;32;34208;-64
2023/01/09 08:28:39;;;;;;;;;;;;;;;9.24;64.59;98686.16;4472497;31;33433;-64
2023/01/09 08:31:06;;;;;;;;;;;;;;;8.56;68.35;98688.38;4470042;32;34123;-64
2023/01/09 08:33:33;;;;;;;;;;;;;;;9.79;64.81;98677.84;4468896;32;33240;-64
2023/01/09 08:36:01;;;;;;;;;;;;;;;8.99;67.52;98682.09;4468926;32;33961;-64
2023/01/09 08:38:28;;;;;;;;;;;;;;;9.36;66.73;98678.09;4476265;32;34319;-64
2023/01/09 08:40:55;;;;;;;;;;;;;;;9.18;67.79;98678.72;4470563;32;34106;-64
2023/01/09 08:49:00;;;;;;;;;;;;;;;9.81;65.38;98681.22;4463842;32;35452;-64
2023/01/09 08:51:28;;;;;;;;;;;;;;;9.91;65.53;98679.41;4475609;32;34452;-64
2023/01/09 08:53:55;;;;;;;;;;;;;;;9.43;66.44;98687.25;4479443;32;33957;-64
2023/01/09 08:56:22;;;;;;;;;;;;;;;9.26;67.31;98678.88;4477844;32;35345;-64
2023/01/09 08:58:50;;;;;;;;;;;;;;;10.06;65.01;98676.38;4481248;32;33947;-65
2023/01/09 09:01:17;;;;;;;;;;;;;;;9.16;66.63;98671.81;4468483;31;35242;-64
2023/01/09 09:03:44;;;;;;;;;;;;;;;8.42;68.91;98662.03;4476238;32;33529;-65
2023/01/09 09:06:12;;;;;;;;;;;;;;;8.98;68.55;98661.72;4466002;32;33691;-65
2023/01/09 09:08:39;;;;;;;;;;;;;;;9.08;67.71;98662.63;4473079;32;35353;-65
2023/01/09 09:11:06;;;;;;;;;;;;;;;9.85;65.68;98652.41;4473803;32;34120;-65
2023/01/09 09:13:34;;;;;;;;;;;;;;;9.37;65.96;98656.56;4443649;32;937208;-65
2023/01/09 09:16:01;;;;;;;;;;;;;;;8.63;69.12;98659.37;4474426;32;33790;-65
2023/01/09 09:18:28;;;;;;;;;;;;;;;9.95;64.95;98662.16;4466475;31;34251;-65
2023/01/09 09:20:56;;;;;;;;;;;;;;;9.86;65.35;98648.75;4472405;32;33864;-66
2023/01/09 09:23:23;;;;;;;;;;;;;;;9.76;66.02;98651.41;4472816;32;33523;-65
2023/01/09 09:25:50;;;;;;;;;;;;;;;9.24;66.95;98653.28;4469351;32;33841;-65
2023/01/09 09:28:18;;;;;;;;;;;;;;;8.74;69.27;98653.16;4470941;31;35819;-65
2023/01/09 09:30:45;;;;;;;;;;;;;;;9.07;67.79;98649.41;4476114;32;34275;-65
2023/01/09 09:33:12;;;;;;;;;;;;;;;9.50;66.02;98653.69;4471733;32;33137;-65
2023/01/09 09:35:40;;;;;;;;;;;;;;;8.96;67.80;98644.16;4476160;32;34106;-65
2023/01/09 09:38:07;;;;;;;;;;;;;;;8.36;69.90;98638.50;4480320;32;33975;-65
2023/01/09 09:40:41;;;;;;;;;;;;;;;9.26;67.32;98641.50;4479531;32;34163;-65
2023/01/09 09:46:14;;;;;;;;;;;;;;;8.58;68.83;98634.91;4452256;32;33648;-65
2023/01/09 09:48:47;;;;;;;;;;;;;;;10.01;64.73;98634.84;4456262;32;34206;-65
2023/01/09 09:51:17;;;;;;;;;;;;;;;10.12;63.99;98635.72;4466805;31;35775;-65
2023/01/09 09:53:48;;;;;;;;;;;;;;;9.73;65.12;98641.00;4471294;32;34949;-65
2023/01/09 09:56:16;;;;;;;;;;;;;;;9.23;66.96;98625.75;4465851;32;33283;-65
2023/01/09 09:58:44;;;;;;;;;;;;;;;9.41;67.05;98630.47;4452904;32;34837;-65
2023/01/09 10:01:14;;;;;;;;;;;;;;;9.45;66.94;98643.41;4452176;32;34028;-65
2023/01/09 10:03:51;;;;;;;;;;;;;;;9.46;66.20;98645.09;4453362;32;33842;-65
2023/01/09 10:06:47;;;;;;;;;;;;;;;9.67;65.98;98639.72;4470430;32;32908;-65
2023/01/09 10:09:24;;;;;;;;;;;;;;;10.16;64.14;98632.62;4455739;32;34614;-65
2023/01/09 10:11:56;;;;;;;;;;;;;;;10.31;63.67;98624.25;4473880;32;34054;-65
2023/01/09 10:14:23;;;;;;;;;;;;;;;9.76;66.00;98620.19;4454294;32;34150;-65
2023/01/09 10:16:57;;;;;;;;;;;;;;;8.79;68.68;98627.75;4466826;32;33929;-65
2023/01/09 10:19:43;;;;;;;;;;;;;;;9.33;66.95;98623.97;4482190;32;35509;-65
2023/01/09 10:22:17;;;;;;;;;;;;;;;9.09;67.90;98612.75;4468978;32;32993;-65
2023/01/09 10:24:50;;;;;;;;;;;;;;;8.55;69.22;98616.50;4469930;32;33021;-65
2023/01/09 10:27:20;;;;;;;;;;;;;;;9.21;68.16;98603.69;4469551;32;33763;-65
2023/01/09 10:29:56;;;;;;;;;;;;;;;10.55;63.33;98605.91;4484007;32;34378;-65
2023/01/09 10:32:35;;;;;;;;;;;;;;;10.36;63.82;98604.09;4467939;32;35277;-64
2023/01/09 10:35:12;;;;;;;;;;;;;;;10.00;64.84;98603.75;4457753;32;33017;-64
2023/01/09 10:37:41;;;;;;;;;;;;;;;9.64;65.57;98601.72;4477916;32;32863;-65
2023/01/09 10:40:17;;;;;;;;;;;;;;;8.92;68.36;98584.00;4469889;32;35470;-65
2023/01/09 10:42:54;;;;;;;;;;;;;;;8.41;70.22;98588.34;4469679;32;35540;-67
2023/01/09 10:45:21;;;;;;;;;;;;;;;8.96;68.80;98580.12;4459086;32;34030;-64
2023/01/09 10:47:49;;;;;;;;;;;;;;;8.90;68.86;98581.47;4472432;32;33919;-65
2023/01/09 10:50:20;;;;;;;;;;;;;;;8.80;68.64;98576.09;4473115;32;34023;-64
2023/01/09 10:52:48;;;;;;;;;;;;;;;8.61;69.33;98566.16;4477620;32;34370;-63
2023/01/09 10:55:18;;;;;;;;;;;;;;;8.28;71.52;98569.84;4473690;32;34623;-64
2023/01/09 10:57:49;;;;;;;;;;;;;;;9.29;68.44;98545.13;4476734;32;34915;-68
2023/01/09 11:00:21;;;;;;;;;;;;;;;8.84;69.69;98547.31;4458326;32;34327;-66
2023/01/09 11:02:50;;;;;;;;;;;;;;;9.16;68.50;98544.50;4475851;31;34025;-66
2023/01/09 11:05:19;;;;;;;;;;;;;;;8.77;69.32;98541.66;4481924;31;32957;-68
2023/01/09 11:07:48;;;;;;;;;;;;;;;9.25;67.64;98533.03;4459910;32;34101;-68
2023/01/09 11:10:15;;;;;;;;;;;;;;;9.85;66.12;98535.66;4483486;32;34220;-67
2023/01/09 11:12:43;;;;;;;;;;;;;;;9.72;66.76;98533.25;4473406;31;35575;-70
2023/01/09 11:15:22;;;;;;;;;;;;;;;8.83;69.08;98529.63;4473794;32;34424;-68
2023/01/09 11:17:50;;;;;;;;;;;;;;;8.40;70.55;98536.81;4473675;32;33736;-68
2023/01/09 11:20:27;;;;;;;;;;;;;;;8.53;71.15;98530.44;4473718;32;34358;-67
2023/01/09 11:22:56;;;;;;;;;;;;;;;8.99;69.79;98535.31;4471113;31;33816;-66
2023/01/09 11:25:24;;;;;;;;;;;;;;;9.04;68.98;98526.91;4481931;31;33121;-64
2023/01/09 11:28:00;;;;;;;;;;;;;;;9.07;69.13;98529.28;4463526;31;34190;-64
2023/01/09 11:30:28;;;;;;;;;;;;;;;9.13;69.27;98523.41;4474161;32;34243;-64
2023/01/09 11:32:56;;;;;;;;;;;;;;;9.61;67.69;98519.19;4461270;32;34810;-64
2023/01/09 11:35:30;;;;;;;;;;;;;;;8.62;69.13;98525.16;4457442;32;33665;-65
2023/01/09 11:38:02;;;;;;;;;;;;;;;8.07;72.56;98518.31;4477519;31;34068;-68
2023/01/09 11:40:31;;;;;;;;;;;;;;;8.52;71.54;98513.59;4455317;32;36424;-69
2023/01/09 11:43:01;;;;;;;;;;;;;;;8.26;72.48;98506.94;4472678;31;35860;-73
2023/01/09 11:45:29;;;;;;;;;;;;;;;8.82;70.96;98515.41;4474377;32;31711;-69
2023/01/09 11:47:57;;;;;;;;;;;;;;;9.05;70.07;98523.25;4458502;32;32493;-71
2023/01/09 11:50:25;;;;;;;;;;;;;;;8.57;71.04;98522.06;4460231;32;32685;-65
2023/01/09 11:53:11;;;;;;;;;;;;;;;9.03;70.54;98518.03;4470311;32;33543;-64
2023/01/09 11:55:39;;;;;;;;;;;;;;;8.45;71.44;98507.09;4474654;32;33645;-65
2023/01/09 11:58:13;;;;;;;;;;;;;;;9.86;67.44;98512.47;4475233;32;33963;-65
2023/01/09 12:00:52;;;;;;;;;;;;;;;10.17;66.45;98513.13;4461534;31;34115;-70
2023/01/09 12:03:32;;;;;;;;;;;;;;;10.14;66.74;98505.41;4473260;32;33284;-67
2023/01/09 12:06:09;;;;;;;;;;;;;;;9.30;69.29;98503.22;4468816;32;33613;-66
2023/01/09 12:08:42;;;;;;;;;;;;;;;8.40;72.47;98486.16;4472887;31;33767;-65
2023/01/09 12:11:16;;;;;;;;;;;;;;;8.86;70.85;98487.50;4481635;31;35572;-65
2023/01/09 12:13:47;;;;;;;;;;;;;;;8.55;72.07;98480.50;4469084;31;35599;-66
2023/01/09 12:16:18;;;;;;;;;;;;;;;8.22;74.20;98478.84;4469349;31;33198;-65
2023/01/09 12:18:57;;;;;;;;;;;;;;;8.34;73.36;98480.47;4469225;31;34061;-66
2023/01/09 12:21:30;;;;;;;;;;;;;;;8.52;73.40;98488.75;4472873;32;35500;-67
2023/01/09 12:24:13;;;;;;;;;;;;;;;9.32;69.85;98496.78;4470651;31;33889;-66
2023/01/09 12:27:02;;;;;;;;;;;;;;;10.06;67.19;98479.38;4476709;31;33376;-67
2023/01/09 12:29:30;;;;;;;;;;;;;;;9.01;71.95;98469.28;4456083;31;35279;-68
2023/01/09 12:32:09;;;;;;;;;;;;;;;8.45;73.07;98469.78;4468266;32;35176;-66
2023/01/09 12:34:56;;;;;;;;;;;;;;;9.14;71.95;98469.03;4476554;31;35731;-67
2023/01/09 12:37:42;;;;;;;;;;;;;;;9.03;72.13;98464.66;4466561;31;32096;-66
2023/01/09 12:40:12;;;;;;;;;;;;;;;9.63;69.13;98463.78;4474363;32;32356;-66
2023/01/09 12:42:42;;;;;;;;;;;;;;;9.87;68.70;98458.84;4470653;31;33504;-66
2023/01/09 12:45:18;;;;;;;;;;;;;;;9.90;68.48;98461.25;4475438;32;35471;-65
2023/01/09 12:47:46;;;;;;;;;;;;;;;9.89;68.48;98458.72;4467684;31;33223;-66
2023/01/09 12:50:30;;;;;;;;;;;;;;;9.57;69.00;98449.16;4454937;32;32700;-66
2023/01/09 12:53:03;;;;;;;;;;;;;;;9.86;68.03;98453.66;4451768;32;35401;-67
2023/01/09 12:55:34;;;;;;;;;;;;;;;10.29;66.75;98444.34;4452650;32;34062;-67
2023/01/09 12:58:05;;;;;;;;;;;;;;;10.27;66.55;98449.81;4451221;32;33004;-67
2023/01/09 13:00:34;;;;;;;;;;;;;;;10.58;65.44;98437.06;4449516;32;34211;-67
2023/01/09 13:03:08;;;;;;;;;;;;;;;10.80;64.78;98430.50;4452115;32;35196;-67
2023/01/09 13:05:41;;;;;;;;;;;;;;;10.57;65.81;98430.03;4464130;32;34441;-66
2023/01/09 13:08:27;;;;;;;;;;;;;;;10.79;65.11;98433.34;4454008;32;33327;-66
2023/01/09 13:10:55;;;;;;;;;;;;;;;10.63;65.89;98433.97;4469605;32;33172;-66
2023/01/09 13:13:42;;;;;;;;;;;;;;;10.38;66.32;98435.44;4451833;32;35765;-66